Terminal Aerodrome Forecast
Issued by NWS

Home | Current Version | Previous Version | Text Only | Print | Product List | Glossary On
Versions: 1 2 3 4 5 6 7 8 9 10 11 12
703
FTUS43 KGRB 241135
TAFATW
TAF
KATW 241135Z 2412/2512 19007KT P6SM SCT090 BKN250
     FM241600 21010G17KT P6SM SCT050 BKN080
      TEMPO 2416/2419 -SHRA BKN050
     FM242200 21008KT P6SM VCTS BKN040CB
     FM250200 30005KT P6SM SCT035 BKN250
     FM250700 04004KT P6SM SCT007 BKN250
      TEMPO 2509/2512 4SM BR BKN007=

USA.gov is the U.S. government's official web portal to all federal, state and local government web resources and services.